Time;durP1;ratioP1;P1;durP2;ratioP2;P2;SDS_P1;SDS_P2;PMS_P1;PMS_P2;Temp;Humidity;BMP_temperature;BMP_pressure;BME280_temperature;BME280_humidity;BME280_pressure;Samples;Min_cycle;Max_cycle;Signal;HPM_P1;HPM_P2
2022/01/20 04:17:02;;;;;;;29.50;14.10;;;0.90;99.90;;;;;;4483041;31;20282;-65
2022/01/20 04:19:32;;;;;;;31.67;15.80;;;0.90;99.90;;;;;;4466193;32;20201;-64
2022/01/20 04:22:02;;;;;;;36.13;16.90;;;0.90;99.90;;;;;;4467294;32;20606;-64
2022/01/20 04:24:29;;;;;;;34.93;17.07;;;0.90;99.90;;;;;;4465804;32;20221;-65
2022/01/20 04:26:57;;;;;;;35.53;17.10;;;0.90;99.90;;;;;;4465973;32;20218;-65
2022/01/20 04:29:23;;;;;;;37.70;17.07;;;0.90;99.90;;;;;;4466248;32;20189;-64
2022/01/20 04:31:50;;;;;;;34.23;17.30;;;0.90;99.90;;;;;;4465891;32;20173;-64
2022/01/20 04:34:17;;;;;;;35.63;17.13;;;0.90;99.90;;;;;;4467889;32;20181;-64
2022/01/20 04:36:47;;;;;;;33.83;15.73;;;0.90;99.90;;;;;;4466667;32;20188;-64
2022/01/20 04:39:19;;;;;;;32.77;16.83;;;0.90;99.90;;;;;;4465786;32;20228;-65
2022/01/20 04:41:46;;;;;;;33.43;16.23;;;0.90;99.90;;;;;;4467367;32;20622;-65
2022/01/20 04:44:30;;;;;;;35.83;17.00;;;1.00;99.90;;;;;;4466989;32;20588;-64
2022/01/20 04:58:00;;;;;;;30.87;15.87;;;1.10;99.90;;;;;;4467034;32;20145;-64
2022/01/20 05:00:28;;;;;;;31.70;16.40;;;1.20;99.90;;;;;;4465592;32;20236;-64
2022/01/20 05:02:54;;;;;;;31.37;15.53;;;1.20;99.90;;;;;;4466411;32;20216;-64
2022/01/20 05:05:21;;;;;;;33.57;16.00;;;1.20;99.90;;;;;;4467410;32;20458;-65
2022/01/20 05:07:49;;;;;;;32.93;16.03;;;1.20;99.90;;;;;;4468061;32;20184;-63
2022/01/20 05:10:16;;;;;;;33.40;16.67;;;1.30;99.90;;;;;;4467082;32;20212;-64
2022/01/20 05:15:23;;;;;;;30.00;14.80;;;1.30;99.90;;;;;;4465417;32;20197;-63
2022/01/20 05:17:51;;;;;;;30.30;15.63;;;1.30;99.90;;;;;;4468530;32;20169;-64
2022/01/20 05:53:47;;;;;;;29.13;14.60;;;1.50;99.90;;;;;;4483367;31;20538;-65
2022/01/20 05:56:14;;;;;;;31.03;14.57;;;1.50;99.90;;;;;;4468096;32;20150;-65
2022/01/20 06:27:55;;;;;;;8.27;3.60;;;1.10;99.90;;;;;;4468895;32;20275;-64
2022/01/20 06:30:24;;;;;;;6.17;2.97;;;1.00;99.90;;;;;;4452456;32;20204;-64
2022/01/20 06:32:52;;;;;;;8.37;3.27;;;1.00;99.90;;;;;;4452205;32;20209;-64
2022/01/20 06:35:19;;;;;;;8.30;2.90;;;0.90;99.90;;;;;;4450388;32;20169;-64
2022/01/20 06:37:46;;;;;;;9.13;2.60;;;0.90;99.90;;;;;;4450507;32;20619;-64
2022/01/20 06:40:13;;;;;;;5.23;2.33;;;0.90;99.90;;;;;;4452004;32;20189;-64
2022/01/20 06:42:41;;;;;;;9.17;2.73;;;0.90;99.90;;;;;;4451545;32;20568;-64
2022/01/20 06:45:11;;;;;;;7.30;2.37;;;0.90;99.90;;;;;;4452272;32;20186;-64
2022/01/20 06:47:38;;;;;;;8.23;2.57;;;0.90;99.90;;;;;;4451926;32;20193;-62
2022/01/20 06:50:08;;;;;;;7.73;2.50;;;0.90;99.90;;;;;;4450472;32;20196;-64
2022/01/20 06:52:35;;;;;;;6.07;2.10;;;0.90;99.90;;;;;;4450965;32;20155;-64
2022/01/20 08:16:49;;;;;;;6.03;1.97;;;2.10;99.90;;;;;;4483037;31;20297;-65
2022/01/20 08:19:17;;;;;;;5.43;2.00;;;2.10;99.90;;;;;;4467921;32;20161;-65
2022/01/20 08:21:44;;;;;;;5.93;1.77;;;2.20;99.90;;;;;;4466697;32;20236;-65
2022/01/20 08:24:12;;;;;;;5.80;1.67;;;2.30;99.90;;;;;;4468656;32;20190;-65
2022/01/20 08:26:39;;;;;;;4.50;1.90;;;2.40;99.90;;;;;;4466070;32;20170;-65
2022/01/20 08:29:06;;;;;;;5.53;2.23;;;2.50;99.90;;;;;;4468074;32;20166;-66
2022/01/20 08:31:33;;;;;;;6.17;1.90;;;2.40;99.90;;;;;;4466278;32;20212;-66
2022/01/20 08:34:00;;;;;;;6.87;2.10;;;2.30;99.90;;;;;;4466659;32;20207;-66
2022/01/20 08:36:27;;;;;;;4.77;1.87;;;2.20;99.90;;;;;;4465486;32;20540;-65
2022/01/20 08:38:54;;;;;;;6.03;1.90;;;2.20;99.90;;;;;;4460375;32;20165;-65
2022/01/20 08:41:21;;;;;;;6.57;1.90;;;2.20;99.90;;;;;;4453655;32;20190;-65
2022/01/20 11:21:28;;;;;;;3.70;1.53;;;1.50;99.90;;;;;;4482527;31;20282;-66
2022/01/20 11:23:56;;;;;;;8.70;1.70;;;1.40;99.90;;;;;;4468552;32;20396;-66
2022/01/20 11:26:23;;;;;;;4.97;1.53;;;1.50;99.90;;;;;;4466395;32;20212;-66
2022/01/20 11:29:00;;;;;;;2.20;1.40;;;1.30;99.90;;;;;;4453377;32;20213;-66
2022/01/20 11:31:34;;;;;;;3.17;1.63;;;1.30;99.90;;;;;;4465770;32;20511;-66
2022/01/20 11:34:18;;;;;;;3.90;1.70;;;1.30;99.90;;;;;;4467544;32;20221;-66
2022/01/20 11:36:45;;;;;;;4.27;1.60;;;1.30;99.90;;;;;;4466744;32;20446;-66
2022/01/20 11:39:32;;;;;;;3.57;1.50;;;1.50;99.90;;;;;;4466265;32;20200;-66
2022/01/20 11:42:00;;;;;;;4.07;1.83;;;1.60;99.90;;;;;;4465766;32;20196;-66
2022/01/20 11:44:31;;;;;;;6.77;1.60;;;1.70;99.90;;;;;;4466200;32;20241;-66
2022/01/20 11:47:07;;;;;;;5.13;1.67;;;1.70;99.90;;;;;;4466073;32;20185;-66
2022/01/20 11:49:38;;;;;;;5.97;1.97;;;1.50;99.90;;;;;;4465548;32;20181;-67
2022/01/20 11:52:31;;;;;;;2.77;1.50;;;1.60;99.90;;;;;;4464792;32;20446;-65
2022/01/20 11:55:19;;;;;;;7.53;1.77;;;1.40;99.90;;;;;;4465952;32;20565;-66
2022/01/20 11:57:47;;;;;;;3.73;1.57;;;1.20;99.90;;;;;;4461930;32;20310;-66
2022/01/20 12:00:29;;;;;;;3.83;1.50;;;1.10;99.90;;;;;;4456975;32;20193;-67
2022/01/20 12:02:56;;;;;;;3.93;1.90;;;1.00;99.90;;;;;;4449464;32;20178;-66
2022/01/20 12:05:28;;;;;;;4.47;1.63;;;1.00;99.90;;;;;;4450376;32;20193;-66
2022/01/20 12:08:20;;;;;;;5.33;1.50;;;1.20;99.90;;;;;;4452100;32;20146;-66
2022/01/20 12:11:07;;;;;;;3.60;1.63;;;1.50;99.90;;;;;;4450081;32;20193;-66
2022/01/20 12:13:55;;;;;;;2.83;1.63;;;1.60;99.90;;;;;;4450584;32;20171;-66
2022/01/20 12:16:23;;;;;;;3.53;1.40;;;1.60;99.90;;;;;;4449761;32;20256;-66
2022/01/20 12:18:56;;;;;;;3.33;1.57;;;1.40;99.90;;;;;;4452715;32;20213;-66
2022/01/20 12:21:25;;;;;;;6.23;1.70;;;1.40;99.90;;;;;;4456074;32;20525;-66
2022/01/20 12:23:56;;;;;;;2.97;1.63;;;1.20;99.90;;;;;;4449805;32;20226;-66
2022/01/20 12:26:23;;;;;;;6.17;1.80;;;1.00;99.90;;;;;;4450808;32;20222;-65
2022/01/20 12:29:06;;;;;;;7.37;1.70;;;1.00;99.90;;;;;;4449476;32;20206;-66
2022/01/20 12:31:54;;;;;;;3.70;1.80;;;0.80;99.90;;;;;;4446650;32;20230;-66
2022/01/20 12:34:22;;;;;;;4.23;1.90;;;0.80;99.90;;;;;;4440263;32;20217;-66
2022/01/20 12:36:59;;;;;;;5.13;1.77;;;0.80;99.90;;;;;;4439451;32;20166;-66
2022/01/20 12:39:35;;;;;;;4.40;2.00;;;0.80;99.90;;;;;;4442096;32;20199;-66
2022/01/20 12:42:08;;;;;;;4.40;1.97;;;0.90;99.90;;;;;;4439679;32;20166;-67
2022/01/20 12:44:42;;;;;;;5.03;1.90;;;0.90;99.90;;;;;;4439230;32;20178;-66
2022/01/20 12:47:09;;;;;;;3.60;1.53;;;1.00;99.90;;;;;;4441400;32;20162;-66
2022/01/20 12:49:37;;;;;;;4.43;1.70;;;1.10;99.90;;;;;;4439172;32;20262;-66
2022/01/20 12:52:10;;;;;;;4.43;1.90;;;1.10;99.90;;;;;;4448344;32;20193;-66
2022/01/20 12:54:39;;;;;;;3.87;1.50;;;1.20;99.90;;;;;;4454259;32;20178;-66
2022/01/20 12:57:12;;;;;;;5.30;1.40;;;1.20;99.90;;;;;;4457422;32;20157;-65
2022/01/20 12:59:42;;;;;;;2.37;1.50;;;1.00;99.90;;;;;;4455689;32;20190;-65
2022/01/20 13:02:19;;;;;;;4.67;1.37;;;0.90;99.90;;;;;;4454524;32;20174;-65
2022/01/20 13:04:47;;;;;;;3.10;1.40;;;1.00;99.90;;;;;;4454256;32;20173;-66
2022/01/20 13:07:17;;;;;;;4.60;1.53;;;1.00;99.90;;;;;;4454886;32;20192;-67
2022/01/20 13:10:02;;;;;;;2.60;1.70;;;0.80;99.90;;;;;;4454040;32;20177;-67
2022/01/20 13:12:40;;;;;;;4.37;1.60;;;0.80;99.90;;;;;;4454567;32;20200;-67
2022/01/20 13:15:17;;;;;;;3.03;1.57;;;0.80;99.90;;;;;;4454323;32;20182;-66
2022/01/20 13:17:48;;;;;;;7.03;2.10;;;0.70;99.90;;;;;;4454035;32;20245;-66
2022/01/20 13:20:20;;;;;;;4.47;1.87;;;0.90;99.90;;;;;;4453811;32;20181;-67
2022/01/20 13:23:07;;;;;;;5.17;2.27;;;0.90;99.90;;;;;;4454319;32;20205;-66
2022/01/20 13:25:40;;;;;;;3.53;1.70;;;0.80;99.90;;;;;;4453834;32;20258;-66
2022/01/20 13:28:10;;;;;;;5.43;2.00;;;0.70;99.90;;;;;;4454509;32;20284;-66
2022/01/20 13:30:47;;;;;;;8.00;2.30;;;0.60;99.90;;;;;;4454087;32;20178;-66
2022/01/20 13:33:16;;;;;;;4.73;2.53;;;0.10;99.90;;;;;;4454774;32;20186;-66
2022/01/20 13:35:46;;;;;;;7.67;2.40;;;-0.30;99.90;;;;;;4455589;32;20138;-66
2022/01/20 13:38:15;;;;;;;4.07;2.27;;;-0.40;99.90;;;;;;4454089;32;20229;-66
2022/01/20 13:40:47;;;;;;;7.47;3.00;;;-0.40;99.90;;;;;;4454216;32;20171;-65
2022/01/20 13:46:06;;;;;;;9.53;2.70;;;-0.30;99.90;;;;;;4455035;32;20150;-65
2022/01/20 13:48:34;;;;;;;8.40;2.90;;;-0.40;99.90;;;;;;4455057;32;20213;-65
2022/01/20 13:51:04;;;;;;;8.53;3.13;;;-0.60;99.90;;;;;;4453633;32;20204;-66
2022/01/20 13:53:40;;;;;;;9.53;3.53;;;-0.70;99.90;;;;;;4453902;32;20169;-65
2022/01/20 13:56:10;;;;;;;5.73;2.60;;;-0.80;99.90;;;;;;4452787;32;20170;-66
2022/01/20 13:58:38;;;;;;;8.90;3.33;;;-0.70;99.90;;;;;;4447208;32;20177;-66
2022/01/20 14:01:10;;;;;;;6.60;2.70;;;-0.80;99.90;;;;;;4439470;32;20169;-65
2022/01/20 14:03:41;;;;;;;6.27;2.80;;;-0.90;99.90;;;;;;4438536;32;20473;-65
2022/01/20 14:06:08;;;;;;;6.30;2.77;;;-0.90;99.90;;;;;;4438782;32;20311;-66
2022/01/20 14:08:39;;;;;;;6.57;2.60;;;-0.90;99.90;;;;;;4438310;32;20189;-66
2022/01/20 14:11:06;;;;;;;5.37;2.63;;;-0.90;99.90;;;;;;4438032;32;20179;-66
2022/01/20 14:13:34;;;;;;;8.97;3.13;;;-0.90;99.90;;;;;;4438469;32;20201;-65
2022/01/20 14:16:04;;;;;;;6.37;2.93;;;-0.90;99.90;;;;;;4438958;32;20162;-65
2022/01/20 14:18:40;;;;;;;7.60;3.07;;;-0.90;99.90;;;;;;4438589;32;20225;-65
2022/01/20 14:21:10;;;;;;;5.77;2.40;;;-0.90;99.90;;;;;;4437762;32;20167;-66
2022/01/20 14:23:37;;;;;;;6.67;2.90;;;-0.80;99.90;;;;;;4437515;32;20182;-65
2022/01/20 14:26:07;;;;;;;7.00;3.07;;;-0.80;99.90;;;;;;4438648;32;20194;-66
2022/01/20 14:28:35;;;;;;;7.27;2.80;;;-0.80;99.90;;;;;;4446058;32;20174;-66
2022/01/20 14:31:02;;;;;;;6.83;2.80;;;-0.80;99.90;;;;;;4439295;32;20170;-65
2022/01/20 14:33:30;;;;;;;9.40;2.37;;;-0.90;99.90;;;;;;4438126;32;20178;-66
2022/01/20 14:35:58;;;;;;;8.20;2.60;;;-1.00;99.90;;;;;;4437984;32;20257;-66
2022/01/20 14:38:28;;;;;;;8.97;2.53;;;-1.10;99.90;;;;;;4439443;32;20374;-66
2022/01/20 14:40:56;;;;;;;5.90;2.27;;;-1.10;99.90;;;;;;4439228;32;20169;-66
2022/01/20 14:43:24;;;;;;;5.60;2.13;;;-1.30;99.90;;;;;;4437311;32;20170;-65
2022/01/20 14:45:52;;;;;;;4.23;2.10;;;-1.40;99.90;;;;;;4438979;32;20214;-65
2022/01/20 14:48:20;;;;;;;6.47;2.60;;;-1.50;99.90;;;;;;4437314;32;20190;-65
2022/01/20 14:50:47;;;;;;;6.87;2.63;;;-1.20;99.90;;;;;;4437362;32;20202;-66
2022/01/20 14:53:15;;;;;;;5.70;2.77;;;-0.90;99.90;;;;;;4437463;32;20205;-66
2022/01/20 14:55:46;;;;;;;5.43;2.67;;;-0.80;99.90;;;;;;4437837;32;20200;-66
2022/01/20 14:58:13;;;;;;;6.37;2.57;;;-0.80;99.90;;;;;;4437971;32;20166;-67
2022/01/20 15:00:41;;;;;;;4.70;2.40;;;-0.70;99.90;;;;;;4437253;32;20178;-67
2022/01/20 15:03:11;;;;;;;4.97;2.37;;;-0.70;99.90;;;;;;4439240;32;20218;-66
2022/01/20 15:05:39;;;;;;;4.80;2.57;;;-0.60;99.90;;;;;;4437254;32;20518;-66
2022/01/20 15:08:07;;;;;;;6.37;2.47;;;-0.60;99.90;;;;;;4440099;32;20205;-66
2022/01/20 15:10:34;;;;;;;5.30;2.37;;;-0.60;99.90;;;;;;4437033;32;20374;-66
2022/01/20 15:13:02;;;;;;;8.03;2.93;;;-0.60;99.90;;;;;;4438195;32;20179;-65
2022/01/20 15:15:30;;;;;;;6.57;2.60;;;-0.60;99.90;;;;;;4438664;32;20151;-66
2022/01/20 15:17:57;;;;;;;8.80;3.23;;;-0.70;99.90;;;;;;4437505;32;20512;-66
2022/01/20 15:20:44;;;;;;;7.70;3.10;;;-0.70;99.90;;;;;;4436801;32;20225;-66
2022/01/20 15:23:18;;;;;;;6.23;2.80;;;-0.80;99.90;;;;;;4436854;32;20244;-66
2022/01/20 15:25:45;;;;;;;7.10;2.73;;;-0.80;99.90;;;;;;4437310;32;20238;-66
2022/01/20 15:28:14;;;;;;;8.50;2.73;;;-0.70;99.90;;;;;;4437612;32;20288;-66
2022/01/20 15:30:42;;;;;;;6.40;2.40;;;-0.70;99.90;;;;;;4437916;32;20628;-66
2022/01/20 15:33:09;;;;;;;9.10;2.90;;;-0.70;99.90;;;;;;4437904;32;20172;-66
2022/01/20 15:35:37;;;;;;;7.00;2.87;;;-0.70;99.90;;;;;;4437149;32;20171;-66
2022/01/20 15:38:04;;;;;;;7.50;2.40;;;-0.90;99.90;;;;;;4437459;32;20162;-66
2022/01/20 15:40:35;;;;;;;7.37;2.20;;;-1.10;99.90;;;;;;4437932;32;20228;-66
2022/01/20 15:43:02;;;;;;;5.30;2.20;;;-1.40;99.90;;;;;;4438957;32;20414;-65
2022/01/20 15:45:30;;;;;;;8.50;2.50;;;-1.50;99.90;;;;;;4438930;32;20170;-66
2022/01/20 15:47:57;;;;;;;11.13;2.50;;;-1.50;99.90;;;;;;4437770;32;20170;-66
2022/01/20 15:50:24;;;;;;;4.77;2.00;;;-1.50;99.90;;;;;;4437869;32;20174;-66
2022/01/20 15:52:52;;;;;;;3.63;1.90;;;-1.70;99.90;;;;;;4442018;32;20164;-66
2022/01/20 15:55:19;;;;;;;5.17;1.40;;;-1.80;99.90;;;;;;4444374;32;20180;-66
2022/01/20 15:57:46;;;;;;;3.53;1.37;;;-1.90;99.90;;;;;;4438134;32;20178;-65
2022/01/20 16:00:14;;;;;;;2.07;1.30;;;-2.00;99.90;;;;;;4438178;32;20172;-66
2022/01/20 16:02:41;;;;;;;4.87;1.50;;;-2.10;99.90;;;;;;4438829;32;20170;-65
2022/01/20 16:05:11;;;;;;;2.90;1.60;;;-2.10;99.90;;;;;;4437179;32;20204;-65
2022/01/20 16:07:40;;;;;;;5.53;1.73;;;-2.00;99.90;;;;;;4439182;32;20172;-66
2022/01/20 16:10:13;;;;;;;3.47;1.80;;;-2.00;99.90;;;;;;4439898;32;20178;-65
2022/01/20 16:12:52;;;;;;;4.00;1.60;;;-1.90;99.90;;;;;;4440319;32;20173;-65
2022/01/20 16:15:23;;;;;;;4.43;2.43;;;-1.90;99.90;;;;;;4439444;32;20168;-66
2022/01/20 16:17:50;;;;;;;6.80;2.40;;;-1.80;99.90;;;;;;4439756;32;20223;-66
2022/01/20 16:20:18;;;;;;;5.00;2.40;;;-1.80;99.90;;;;;;4439215;32;20178;-66
2022/01/20 16:22:45;;;;;;;5.40;2.50;;;-1.70;99.90;;;;;;4439171;32;20166;-66
2022/01/20 16:25:12;;;;;;;5.00;2.67;;;-1.70;99.90;;;;;;4439505;32;20166;-65
2022/01/20 16:27:39;;;;;;;4.33;2.50;;;-1.60;99.90;;;;;;4439874;32;20166;-65
2022/01/20 16:30:20;;;;;;;8.10;2.73;;;-1.60;99.90;;;;;;4439039;32;20170;-65
2022/01/20 16:32:48;;;;;;;6.00;2.60;;;-1.60;99.90;;;;;;4439151;32;20170;-66
2022/01/20 16:35:15;;;;;;;3.13;2.13;;;-1.60;99.90;;;;;;4439665;32;20204;-66
2022/01/20 16:37:43;;;;;;;6.03;2.47;;;-1.60;99.90;;;;;;4439278;32;20189;-66
2022/01/20 16:40:11;;;;;;;5.20;2.40;;;-1.60;99.90;;;;;;4439737;32;20182;-66
2022/01/20 16:42:38;;;;;;;5.03;2.57;;;-1.60;99.90;;;;;;4440723;32;20166;-66
2022/01/20 16:45:07;;;;;;;5.30;2.50;;;-1.60;99.90;;;;;;4440973;32;20153;-66
2022/01/20 16:47:34;;;;;;;2.77;2.13;;;-1.60;99.90;;;;;;4439867;32;20249;-66
2022/01/20 16:50:01;;;;;;;4.23;2.40;;;-1.60;99.90;;;;;;4439110;32;20187;-67
2022/01/20 16:52:31;;;;;;;4.47;2.30;;;-1.60;99.90;;;;;;4448041;32;20205;-66
2022/01/20 16:54:58;;;;;;;6.13;2.67;;;-1.70;99.90;;;;;;4440522;32;20171;-66
2022/01/20 16:57:24;;;;;;;5.97;2.50;;;-1.70;99.90;;;;;;4440888;32;20200;-65
2022/01/20 16:59:53;;;;;;;7.73;2.50;;;-1.70;99.90;;;;;;4440503;32;20242;-65
2022/01/20 17:02:32;;;;;;;5.43;2.80;;;-1.70;99.90;;;;;;4438336;32;20197;-65
2022/01/20 17:04:59;;;;;;;6.37;2.67;;;-1.70;99.90;;;;;;4439680;32;20178;-66
2022/01/20 17:07:26;;;;;;;7.83;2.57;;;-1.70;99.90;;;;;;4439574;32;20223;-66
2022/01/20 17:09:55;;;;;;;7.80;2.80;;;-1.60;99.90;;;;;;4453974;32;20216;-65
2022/01/20 17:12:23;;;;;;;7.17;3.03;;;-1.60;99.90;;;;;;4454927;32;20170;-65
2022/01/20 17:14:50;;;;;;;6.07;2.73;;;-1.60;99.90;;;;;;4455071;32;20321;-65
2022/01/20 17:17:17;;;;;;;6.30;3.10;;;-1.50;99.90;;;;;;4455320;32;20154;-65
2022/01/20 17:19:44;;;;;;;6.77;2.83;;;-1.50;99.90;;;;;;4454098;32;20174;-65
2022/01/20 17:22:12;;;;;;;3.73;2.37;;;-1.50;99.90;;;;;;4454531;32;20214;-65
2022/01/20 17:24:48;;;;;;;6.50;2.90;;;-1.40;99.90;;;;;;4454913;32;20488;-65
2022/01/20 17:27:15;;;;;;;5.97;2.80;;;-1.50;99.90;;;;;;4455862;32;20137;-65
2022/01/20 17:29:42;;;;;;;8.97;3.10;;;-1.40;99.90;;;;;;4455531;32;20170;-65
2022/01/20 17:32:10;;;;;;;7.53;3.27;;;-1.40;99.90;;;;;;4454791;32;20158;-65
2022/01/20 17:34:37;;;;;;;5.57;2.80;;;-1.40;99.90;;;;;;4453913;32;20190;-65
2022/01/20 17:37:04;;;;;;;6.07;2.93;;;-1.40;99.90;;;;;;4455471;32;20152;-65
2022/01/20 17:39:31;;;;;;;4.90;3.23;;;-1.40;99.90;;;;;;4451828;32;20728;-66
2022/01/20 17:41:58;;;;;;;5.47;2.73;;;-1.40;99.90;;;;;;4446486;32;20246;-65
2022/01/20 17:44:27;;;;;;;6.03;2.80;;;-1.40;99.90;;;;;;4453665;32;20201;-65
2022/01/20 17:46:58;;;;;;;8.03;3.10;;;-1.40;99.90;;;;;;4455280;32;20354;-65
2022/01/20 17:49:25;;;;;;;8.70;3.20;;;-1.40;99.90;;;;;;4454808;32;20202;-65
2022/01/20 17:51:52;;;;;;;5.53;3.00;;;-1.40;99.90;;;;;;4453551;32;20561;-65
2022/01/20 17:54:20;;;;;;;6.17;3.03;;;-1.40;99.90;;;;;;4454194;32;20246;-65
2022/01/20 17:56:49;;;;;;;6.13;2.83;;;-1.40;99.90;;;;;;4454650;32;20222;-65
2022/01/20 17:59:23;;;;;;;5.40;3.30;;;-1.40;99.90;;;;;;4454064;32;20343;-65
2022/01/20 18:01:50;;;;;;;5.00;3.07;;;-1.30;99.90;;;;;;4452219;32;20458;-65
2022/01/20 18:04:19;;;;;;;8.23;2.90;;;-1.30;99.90;;;;;;4454230;32;20522;-66
2022/01/20 18:06:49;;;;;;;5.97;3.13;;;-1.30;99.90;;;;;;4455498;32;20142;-65
2022/01/20 18:09:27;;;;;;;6.80;3.37;;;-1.30;99.90;;;;;;4453629;32;20197;-65
2022/01/20 18:11:56;;;;;;;7.67;3.80;;;-1.30;99.90;;;;;;4455304;32;20177;-65
2022/01/20 18:14:23;;;;;;;7.67;3.80;;;-1.40;99.90;;;;;;4453686;32;20474;-65
2022/01/20 18:16:51;;;;;;;9.13;3.77;;;-1.30;99.90;;;;;;4440958;32;20170;-65
2022/01/20 18:19:19;;;;;;;8.37;3.77;;;-1.30;99.90;;;;;;4446256;32;20395;-65
2022/01/20 18:21:46;;;;;;;6.83;3.30;;;-1.30;99.90;;;;;;4455277;32;20535;-65
2022/01/20 18:24:14;;;;;;;7.37;3.40;;;-1.40;99.90;;;;;;4454229;32;20213;-65
2022/01/20 18:26:42;;;;;;;8.97;3.33;;;-1.40;99.90;;;;;;4455123;32;20142;-65
2022/01/20 18:29:10;;;;;;;7.47;3.27;;;-1.40;99.90;;;;;;4453767;32;20563;-65
2022/01/20 18:31:37;;;;;;;5.50;3.07;;;-1.40;99.90;;;;;;4454884;32;20434;-65
2022/01/20 18:34:04;;;;;;;8.10;3.47;;;-1.40;99.90;;;;;;4454857;32;20147;-65
2022/01/20 18:36:31;;;;;;;5.67;2.77;;;-1.40;99.90;;;;;;4454338;32;20484;-65
2022/01/20 18:38:58;;;;;;;7.27;3.00;;;-1.30;99.90;;;;;;4455065;32;20415;-65
2022/01/20 18:41:25;;;;;;;4.60;2.90;;;-1.30;99.90;;;;;;4455191;32;20423;-66
2022/01/20 18:43:53;;;;;;;5.23;2.93;;;-1.30;99.90;;;;;;4454226;32;20178;-65
2022/01/20 18:46:20;;;;;;;8.07;2.93;;;-1.30;99.90;;;;;;4453345;32;20601;-65
2022/01/20 18:48:48;;;;;;;6.17;3.00;;;-1.30;99.90;;;;;;4453589;32;20166;-65
2022/01/20 18:51:15;;;;;;;7.63;3.03;;;-1.40;99.90;;;;;;4453347;32;20434;-65
2022/01/20 18:53:42;;;;;;;8.73;3.53;;;-1.40;99.90;;;;;;4453242;32;20178;-65
2022/01/20 18:56:09;;;;;;;8.37;3.50;;;-1.50;99.90;;;;;;4453267;32;20277;-66
2022/01/20 18:58:44;;;;;;;6.70;3.37;;;-1.50;99.90;;;;;;4453832;32;20170;-65
2022/01/20 19:01:11;;;;;;;7.47;3.00;;;-1.50;99.90;;;;;;4453269;32;20395;-65
2022/01/20 19:03:40;;;;;;;6.97;3.27;;;-1.60;99.90;;;;;;4454420;32;20170;-65
2022/01/20 19:06:07;;;;;;;5.73;3.00;;;-1.60;99.90;;;;;;4453158;32;20230;-65
2022/01/20 19:08:36;;;;;;;5.67;2.87;;;-1.60;99.90;;;;;;4453239;32;20520;-65
2022/01/20 19:11:05;;;;;;;8.17;3.20;;;-1.60;99.90;;;;;;4452857;32;20555;-65
2022/01/20 19:13:32;;;;;;;7.43;3.10;;;-1.60;99.90;;;;;;4453503;32;20173;-65
2022/01/20 19:16:05;;;;;;;8.63;3.03;;;-1.70;99.90;;;;;;4454709;32;20457;-65
2022/01/20 19:18:32;;;;;;;6.27;3.00;;;-1.70;99.90;;;;;;4453511;32;20183;-65
2022/01/20 19:20:59;;;;;;;9.43;3.57;;;-1.70;99.90;;;;;;4453837;32;20208;-65
2022/01/20 19:23:27;;;;;;;6.67;3.70;;;-1.70;99.90;;;;;;4453360;32;20434;-66
2022/01/20 19:25:54;;;;;;;6.27;3.30;;;-1.80;99.90;;;;;;4454750;32;20504;-65
2022/01/20 19:28:22;;;;;;;7.40;3.33;;;-1.80;99.90;;;;;;4453432;32;20456;-65
2022/01/20 19:30:54;;;;;;;9.67;4.10;;;-1.80;99.90;;;;;;4453119;32;20163;-65
2022/01/20 19:33:22;;;;;;;14.07;4.43;;;-1.80;99.90;;;;;;4440188;32;20245;-65
2022/01/20 19:35:49;;;;;;;9.03;4.30;;;-1.80;99.90;;;;;;4453387;32;20181;-65
2022/01/20 19:38:18;;;;;;;9.80;4.23;;;-1.80;99.90;;;;;;4454158;32;20163;-65
2022/01/20 19:40:45;;;;;;;12.23;4.00;;;-1.80;99.90;;;;;;4452724;32;20217;-65
2022/01/20 19:43:13;;;;;;;9.07;4.23;;;-1.70;99.90;;;;;;4456154;32;20172;-65
2022/01/20 19:45:40;;;;;;;7.47;3.83;;;-1.80;99.90;;;;;;4456967;32;20205;-65
2022/01/20 19:48:07;;;;;;;7.93;4.07;;;-1.70;99.90;;;;;;4456241;32;20166;-65
2022/01/20 19:50:34;;;;;;;9.60;4.30;;;-1.70;99.90;;;;;;4455643;32;20213;-65
2022/01/20 19:53:02;;;;;;;10.63;4.03;;;-1.80;99.90;;;;;;4456899;32;20212;-66
2022/01/20 19:55:30;;;;;;;8.43;3.93;;;-1.80;99.90;;;;;;4455935;32;20180;-65
2022/01/20 19:58:01;;;;;;;9.40;4.07;;;-1.80;99.90;;;;;;4457126;32;20201;-66
2022/01/20 20:00:28;;;;;;;8.53;3.73;;;-1.80;99.90;;;;;;4457308;32;20143;-65
2022/01/20 20:02:56;;;;;;;10.70;4.47;;;-1.80;99.90;;;;;;4456816;32;20206;-65
2022/01/20 20:05:25;;;;;;;10.20;3.80;;;-1.80;99.90;;;;;;4455680;32;20215;-65
2022/01/20 20:07:52;;;;;;;13.83;4.10;;;-1.80;99.90;;;;;;4456565;32;20530;-65
2022/01/20 20:10:19;;;;;;;8.97;3.97;;;-1.80;99.90;;;;;;4456318;32;20219;-65
2022/01/20 20:12:47;;;;;;;8.50;3.87;;;-1.80;99.90;;;;;;4456997;32;20164;-65
2022/01/20 20:15:14;;;;;;;10.87;4.13;;;-1.80;99.90;;;;;;4455404;32;20213;-65
2022/01/20 20:17:41;;;;;;;7.90;3.23;;;-1.70;99.90;;;;;;4455715;32;20174;-67
2022/01/20 20:20:09;;;;;;;7.93;3.80;;;-1.70;99.90;;;;;;4448368;32;20399;-66
2022/01/20 20:22:36;;;;;;;11.40;3.37;;;-1.70;99.90;;;;;;4439976;32;20963;-65
2022/01/20 20:25:04;;;;;;;9.13;3.30;;;-1.70;99.90;;;;;;4440272;32;20174;-66
2022/01/20 20:27:32;;;;;;;8.33;3.10;;;-1.70;99.90;;;;;;4440036;32;20166;-65
2022/01/20 20:29:59;;;;;;;5.90;3.10;;;-1.60;99.90;;;;;;4440372;32;20203;-65
2022/01/20 20:32:26;;;;;;;12.23;3.73;;;-1.60;99.90;;;;;;4451587;32;20179;-66
2022/01/20 20:34:53;;;;;;;10.23;3.40;;;-1.60;99.90;;;;;;4457281;32;20160;-66
2022/01/20 20:37:20;;;;;;;9.23;3.67;;;-1.60;99.90;;;;;;4455474;32;20353;-65
2022/01/20 20:39:47;;;;;;;7.70;3.20;;;-1.60;99.90;;;;;;4457945;32;20146;-66
2022/01/20 20:42:14;;;;;;;12.53;3.50;;;-1.60;99.90;;;;;;4456137;32;20575;-65
2022/01/20 20:44:41;;;;;;;8.97;3.30;;;-1.60;99.90;;;;;;4442567;32;20176;-65
2022/01/20 20:47:08;;;;;;;9.00;3.50;;;-1.60;99.90;;;;;;4455478;32;20186;-65
2022/01/20 20:49:35;;;;;;;6.40;3.30;;;-1.60;99.90;;;;;;4454854;32;20169;-65
2022/01/20 20:52:08;;;;;;;8.83;2.93;;;-1.60;99.90;;;;;;4457840;32;20146;-65
2022/01/20 20:54:37;;;;;;;8.47;2.93;;;-1.60;99.90;;;;;;4455300;32;20166;-66
2022/01/20 20:57:04;;;;;;;6.07;3.10;;;-1.60;99.90;;;;;;4455499;32;20220;-66
2022/01/20 20:59:32;;;;;;;8.57;3.13;;;-1.60;99.90;;;;;;4455994;32;20461;-65
2022/01/20 21:01:59;;;;;;;10.47;3.10;;;-1.60;99.90;;;;;;4456906;32;20237;-65
2022/01/20 21:04:26;;;;;;;7.27;2.50;;;-1.60;99.90;;;;;;4456741;32;20204;-65
2022/01/20 21:07:08;;;;;;;7.40;2.80;;;-1.60;99.90;;;;;;4454648;32;20176;-65
2022/01/20 21:09:37;;;;;;;6.83;2.50;;;-1.60;99.90;;;;;;4455471;32;20168;-65
2022/01/20 21:12:07;;;;;;;7.90;2.80;;;-1.60;99.90;;;;;;4454676;32;20198;-65
2022/01/20 21:14:36;;;;;;;5.63;2.57;;;-1.60;99.90;;;;;;4455499;32;20213;-65
2022/01/20 21:17:07;;;;;;;6.17;2.10;;;-1.50;99.90;;;;;;4454915;32;20442;-65
2022/01/20 21:19:36;;;;;;;6.83;2.70;;;-1.50;99.90;;;;;;4454054;32;20235;-66
2022/01/20 21:22:05;;;;;;;3.83;2.03;;;-1.50;99.90;;;;;;4454729;32;20166;-65
2022/01/20 21:24:34;;;;;;;7.53;2.00;;;-1.50;99.90;;;;;;4456071;32;20146;-65
2022/01/20 21:27:02;;;;;;;6.47;2.17;;;-1.50;99.90;;;;;;4452467;32;20194;-65
2022/01/20 21:29:29;;;;;;;5.17;1.90;;;-1.50;99.90;;;;;;4456542;32;20146;-66
2022/01/20 21:31:56;;;;;;;5.50;2.10;;;-1.50;99.90;;;;;;4454051;32;20178;-65
2022/01/20 21:34:23;;;;;;;5.13;2.10;;;-1.50;99.90;;;;;;4455126;32;20220;-65
2022/01/20 21:36:51;;;;;;;7.20;2.00;;;-1.50;99.90;;;;;;4455353;32;20202;-66
2022/01/20 21:39:18;;;;;;;3.83;1.90;;;-1.50;99.90;;;;;;4455148;32;20175;-65
2022/01/20 21:41:46;;;;;;;5.20;1.93;;;-1.50;99.90;;;;;;4453691;32;20171;-65
2022/01/20 21:44:14;;;;;;;6.77;2.03;;;-1.50;99.90;;;;;;4454242;32;20265;-66
2022/01/20 21:46:42;;;;;;;3.47;1.77;;;-1.50;99.90;;;;;;4453325;32;20195;-65
2022/01/20 21:49:09;;;;;;;5.47;2.07;;;-1.40;99.90;;;;;;4453214;32;20178;-65
2022/01/20 21:51:57;;;;;;;7.57;1.90;;;-1.50;99.90;;;;;;4445096;32;20204;-65
2022/01/20 21:54:24;;;;;;;5.00;1.90;;;-1.40;99.90;;;;;;4438730;32;20651;-65
2022/01/20 21:56:52;;;;;;;5.10;1.67;;;-1.40;99.90;;;;;;4439244;32;20230;-65
2022/01/20 21:59:19;;;;;;;4.17;1.90;;;-1.40;99.90;;;;;;4438228;32;20162;-65
2022/01/20 22:01:46;;;;;;;4.53;1.70;;;-1.40;99.90;;;;;;4438168;32;20459;-65
2022/01/20 22:04:13;;;;;;;5.90;1.97;;;-1.40;99.90;;;;;;4438023;32;20204;-65
2022/01/20 22:06:40;;;;;;;3.93;1.90;;;-1.40;99.90;;;;;;4438336;32;20209;-65
2022/01/20 22:09:07;;;;;;;6.33;2.10;;;-1.40;99.90;;;;;;4439016;32;20168;-65
2022/01/20 22:11:34;;;;;;;6.37;2.30;;;-1.40;99.90;;;;;;4438911;32;20499;-66
2022/01/20 22:14:01;;;;;;;4.70;1.60;;;-1.30;99.90;;;;;;4439663;32;20166;-65
2022/01/20 22:16:28;;;;;;;4.00;1.90;;;-1.30;99.90;;;;;;4437774;32;20184;-65
2022/01/20 22:18:55;;;;;;;5.60;2.00;;;-1.30;99.90;;;;;;4440574;32;20130;-65
2022/01/20 22:21:22;;;;;;;3.70;1.80;;;-1.30;99.90;;;;;;4449295;32;20170;-65
2022/01/20 22:23:49;;;;;;;5.60;2.00;;;-1.30;99.90;;;;;;4455203;32;20228;-66
2022/01/20 22:26:16;;;;;;;5.57;1.90;;;-1.30;99.90;;;;;;4454507;32;20174;-65
2022/01/20 22:28:48;;;;;;;3.73;1.70;;;-1.30;99.90;;;;;;4454607;32;20160;-65
2022/01/20 22:31:15;;;;;;;3.53;1.60;;;-1.30;99.90;;;;;;4453632;32;20196;-65
2022/01/20 22:33:43;;;;;;;3.67;1.90;;;-1.30;99.90;;;;;;4453915;32;20395;-65